Caribbean-star — A8KJ7 — position and weather

sailwx.info

Track history (hours):
 
Tides and Currents Weather Stations Pressure Air Temp Water Temp Dewpoint Dewpoint Depression Visibility Wind Speed Wind Dir Waves Ship Positions

Caribbean-star

Last reported at 2017-Sep-20 06:35 UTC. Time now 2017-Sep-23 07:44 UTC.
Position N 23°56' W 016°51'.

Length 185 m; draft 8.8 m.

Type: Cargo ship. MMSI: 636013068.

Date/timePositionNaut miles runAvg speedWind from/ knotsBaromVisibWave heightAir tempDewpointWater temp
2017-Sep-20 06:35N 23°56' W 016°51'116.0
2017-Sep-20 06:30N 23°57' W 016°51'2915.9
2017-Sep-20 04:42N 24°24' W 016°40'1015.8
2017-Sep-20 04:04N 24°33' W 016°35'115.9
2017-Sep-20 04:00N 24°34' W 016°35'6415.5
2017-Sep-19 23:54N 25°33' W 016°09'10115.3
2017-Sep-19 17:17N 27°06' W 015°26'3015.2
2017-Sep-19 15:20N 27°34' W 015°14'515.4
2017-Sep-19 15:00N 27°39' W 015°12'815.4
2017-Sep-19 14:30N 27°46' W 015°09'815.7
2017-Sep-19 14:00N 27°53' W 015°06'815.6
2017-Sep-19 13:30N 28°01' W 015°03'815.6
2017-Sep-19 13:00N 28°08' W 015°00'815.8
2017-Sep-19 12:30N 28°15' W 014°57'815.5
2017-Sep-19 12:00N 28°23' W 014°54'815.8
2017-Sep-19 11:31N 28°30' W 014°52'815.9
2017-Sep-19 11:00N 28°38' W 014°50'816.0
2017-Sep-19 10:30N 28°46' W 014°48'816.0
2017-Sep-19 10:00N 28°54' W 014°46'816.0
2017-Sep-19 09:30N 29°02' W 014°44'815.9
2017-Sep-19 09:00N 29°09' W 014°42'816.1
2017-Sep-19 08:30N 29°17' W 014°39'816.2
2017-Sep-19 08:00N 29°25' W 014°37'816.1
2017-Sep-19 07:30N 29°33' W 014°35'816.0
2017-Sep-19 07:00N 29°41' W 014°34'815.8
2017-Sep-19 06:30N 29°48' W 014°31'815.9
2017-Sep-19 06:00N 29°56' W 014°29'815.9
2017-Sep-19 05:30N 30°04' W 014°27'1316.0
2017-Sep-19 04:40N 30°17' W 014°23'516.1
2017-Sep-19 04:23N 30°21' W 014°22'1115.9
2017-Sep-19 03:40N 30°32' W 014°18'615.7
2017-Sep-19 03:18N 30°38' W 014°17'615.8
2017-Sep-19 02:54N 30°44' W 014°15'615.8
2017-Sep-19 02:30N 30°50' W 014°14'1015.7
2017-Sep-19 01:52N 30°60' W 014°11'615.8
2017-Sep-19 01:28N 31°06' W 014°09'815.8
2017-Sep-19 00:57N 31°14' W 014°07'715.9
2017-Sep-19 00:30N 31°21' W 014°05'1616.2
2017-Sep-18 23:30N 31°37' W 014°01'916.3
2017-Sep-18 22:58N 31°45' W 013°58'816.0
2017-Sep-18 22:30N 31°52' W 013°56'5816.1
2017-Sep-18 18:53N 32°49' W 013°40'3115.6
2017-Sep-18 16:54N 33°19' W 013°32'4415.7
2017-Sep-18 14:07N 34°01' W 013°19'  
2017-Sep-15 19:36N 49°37' W 003°54'216.2
2017-Sep-15 19:28N 49°38' W 003°52'816.3
2017-Sep-15 19:00N 49°42' W 003°42'816.4
2017-Sep-15 18:30N 49°46' W 003°31'816.1
2017-Sep-15 18:01N 49°50' W 003°20'815.7
2017-Sep-15 17:31N 49°54' W 003°09'815.3
2017-Sep-15 17:00N 49°58' W 002°59'714.7
2017-Sep-15 16:31N 50°00' W 002°48'714.3
2017-Sep-15 16:00N 50°03' W 002°38'2513.6
2017-Sep-15 14:12N 50°10' W 002°01'313.7
2017-Sep-15 14:00N 50°10' W 001°57'713.9
2017-Sep-15 13:30N 50°12' W 001°46'714.4
2017-Sep-15 13:00N 50°14' W 001°36'715.0
2017-Sep-15 12:30N 50°16' W 001°24'4016.5
2017-Sep-15 10:06N 50°27' W 000°24'116.9
2017-Sep-15 10:01N 50°27' W 000°22'816.7
2017-Sep-15 09:31N 50°29' W 000°09'816.6
2017-Sep-15 09:00N 50°32' E 000°03'816.5
2017-Sep-15 08:31N 50°34' E 000°16'816.3
2017-Sep-15 08:01N 50°36' E 000°28'815.4
2017-Sep-15 07:31N 50°40' E 000°39'815.6
2017-Sep-15 07:01N 50°44' E 000°49'815.2
2017-Sep-15 06:31N 50°49' E 000°59'714.9
2017-Sep-15 06:01N 50°53' E 001°08'714.7
2017-Sep-15 05:30N 50°58' E 001°17'714.4
2017-Sep-15 05:00N 51°03' E 001°25'612.7
2017-Sep-15 04:30N 51°07' E 001°32'714.2
2017-Sep-15 04:00N 51°12' E 001°41'816.6
2017-Sep-15 03:30N 51°18' E 001°50'816.9
2017-Sep-15 03:01N 51°24' E 001°59'714.9
2017-Sep-15 02:30N 51°22' E 002°10'815.2
2017-Sep-15 02:00N 51°22' E 002°23'815.8
2017-Sep-15 01:30N 51°23' E 002°35'612.3
2017-Sep-15 01:00N 51°22' E 002°45'713.1
2017-Sep-15 00:31N 51°23' E 002°55'713.8
2017-Sep-15 00:01N 51°24' E 003°06'815.0
2017-Sep-14 23:30N 51°25' E 003°18'815.6
2017-Sep-14 23:01N 51°25' E 003°31'510.9
2017-Sep-14 22:30N 51°26' E 003°39'713.8
2017-Sep-14 22:00N 51°21' E 003°47'713.0
2017-Sep-14 21:30N 51°23' E 003°57'3 6.7
2017-Sep-14 21:00N 51°24' E 004°02'510.0
2017-Sep-14 20:31N 51°23' E 004°10'5 9.2
2017-Sep-14 20:01N 51°21' E 004°16'4 7.7
2017-Sep-14 19:30N 51°17' E 004°15'0 0.2
2017-Sep-14 18:59N 51°17' E 004°15'0 0.0
2017-Sep-14 18:31N 51°17' E 004°15'1 1.6
2017-Sep-14 18:00N 51°16' E 004°15'0 0.1
2017-Sep-14 17:30N 51°16' E 004°15'0 0.0
2017-Sep-14 17:00N 51°16' E 004°15'0 0.0
2017-Sep-14 16:30N 51°16' E 004°15'0 0.0
2017-Sep-14 16:00N 51°16' E 004°15'0 0.0
2017-Sep-14 15:30N 51°16' E 004°15'0 0.0
2017-Sep-14 15:00N 51°16' E 004°15'0 0.0
2017-Sep-14 14:30N 51°16' E 004°15'0 0.0
2017-Sep-14 14:00N 51°16' E 004°15'0 0.0
2017-Sep-14 13:30N 51°16' E 004°15'0 0.0
2017-Sep-14 13:00N 51°16' E 004°15'0 0.0
2017-Sep-14 12:30N 51°16' E 004°15'0 0.0
2017-Sep-14 12:00N 51°16' E 004°15'0 0.0
2017-Sep-14 11:30N 51°16' E 004°15'0 0.0
2017-Sep-14 11:00N 51°16' E 004°15'0 0.0
2017-Sep-14 10:30N 51°16' E 004°15'0 0.0
2017-Sep-14 10:00N 51°16' E 004°15'0 0.0
2017-Sep-14 09:30N 51°16' E 004°15'0 0.0
2017-Sep-14 09:00N 51°16' E 004°15'0 0.0
2017-Sep-14 08:30N 51°16' E 004°15'0 0.0
2017-Sep-14 08:00N 51°16' E 004°15'0 0.0
2017-Sep-14 07:24N 51°16' E 004°15'0 0.0
2017-Sep-14 07:00N 51°16' E 004°15'0 0.0
2017-Sep-14 06:30N 51°16' E 004°15'0 0.0
2017-Sep-14 06:00N 51°16' E 004°15'0 0.0
2017-Sep-14 05:30N 51°16' E 004°15'0 0.0
2017-Sep-14 05:00N 51°16' E 004°15'0 0.0
2017-Sep-14 04:30N 51°16' E 004°15'0 0.0
2017-Sep-14 04:00N 51°16' E 004°15'0 0.0
2017-Sep-14 03:24N 51°16' E 004°15'0 0.0
2017-Sep-14 03:00N 51°16' E 004°15'0 0.0
2017-Sep-14 02:30N 51°16' E 004°15'0 0.0
2017-Sep-14 01:54N 51°16' E 004°15'0 0.0
2017-Sep-14 01:30N 51°16' E 004°15'0 0.0
2017-Sep-14 01:00N 51°16' E 004°15'0 0.0
2017-Sep-14 00:30N 51°16' E 004°15'0 0.0
2017-Sep-14 00:00N 51°16' E 004°15'0 0.0
2017-Sep-13 23:30N 51°16' E 004°15'0 0.0
2017-Sep-13 23:00N 51°16' E 004°15'0 0.0
2017-Sep-13 22:29N 51°16' E 004°15'0 0.0
2017-Sep-13 21:59N 51°16' E 004°15'0 0.0
2017-Sep-13 21:29N 51°16' E 004°15'0 0.0
2017-Sep-13 20:59N 51°16' E 004°15'0 0.0
2017-Sep-13 20:29N 51°16' E 004°15'0 0.0
2017-Sep-13 19:59N 51°16' E 004°15'0 0.0
2017-Sep-13 19:26N 51°16' E 004°15'0 0.0
2017-Sep-13 18:53N 51°16' E 004°15'0 0.0
2017-Sep-13 18:29N 51°16' E 004°15'0 0.0
2017-Sep-13 17:59N 51°16' E 004°15'0 0.0
2017-Sep-13 17:29N 51°16' E 004°15'0 0.0
2017-Sep-13 16:59N 51°16' E 004°15'0 0.0
2017-Sep-13 16:29N 51°16' E 004°15'0 0.0
2017-Sep-13 15:59N 51°16' E 004°15'0 0.0
2017-Sep-13 15:29N 51°16' E 004°15'0 0.0
2017-Sep-13 14:59N 51°16' E 004°15'0 0.0
2017-Sep-13 14:29N 51°16' E 004°15'0 0.0
2017-Sep-13 13:59N 51°16' E 004°15'0 0.0
2017-Sep-13 13:26N 51°16' E 004°15'0 0.0
2017-Sep-13 12:59N 51°16' E 004°15'0 0.0
2017-Sep-13 12:29N 51°16' E 004°15'0 0.0
2017-Sep-13 11:59N 51°16' E 004°15'0 0.0
2017-Sep-13 11:26N 51°16' E 004°15'0 0.0
2017-Sep-13 10:59N 51°16' E 004°15'0 0.0
2017-Sep-13 10:26N 51°16' E 004°15'0 0.0
2017-Sep-13 09:59N 51°16' E 004°15'0 0.0
2017-Sep-13 09:26N 51°16' E 004°15'0 0.0
2017-Sep-13 08:56N 51°16' E 004°15'0 0.0
2017-Sep-13 08:26N 51°16' E 004°15'0 0.0
2017-Sep-13 07:56N 51°16' E 004°15'0 0.0
2017-Sep-13 07:29N 51°16' E 004°15'0 0.0
2017-Sep-13 06:59N 51°16' E 004°15'0 0.0
2017-Sep-13 06:29N 51°16' E 004°15'0 0.0
2017-Sep-13 05:59N 51°16' E 004°15'0 0.0
2017-Sep-13 05:29N 51°16' E 004°15'0 0.0
2017-Sep-13 04:59N 51°16' E 004°15'0 0.0
2017-Sep-13 04:29N 51°16' E 004°15'0 0.0
2017-Sep-13 03:59N 51°16' E 004°15'0 0.0
2017-Sep-13 03:29N 51°16' E 004°15'0 0.0
2017-Sep-13 02:59N 51°16' E 004°15'0 0.0
2017-Sep-13 02:29N 51°16' E 004°15'0 0.0
2017-Sep-13 01:59N 51°16' E 004°15'0 0.0
2017-Sep-13 01:29N 51°16' E 004°15'0 0.0
2017-Sep-13 00:59N 51°16' E 004°15'0 0.0
2017-Sep-13 00:29N 51°16' E 004°15'0 0.0
2017-Sep-12 23:59N 51°16' E 004°15'0 0.0
2017-Sep-12 23:29N 51°16' E 004°15'0 0.0
2017-Sep-12 22:59N 51°16' E 004°15'0 0.0
2017-Sep-12 22:29N 51°16' E 004°15'0 0.0
2017-Sep-12 21:59N 51°16' E 004°15'0 0.0
2017-Sep-12 21:29N 51°16' E 004°15'0 0.0
2017-Sep-12 20:59N 51°16' E 004°15'0 0.0
2017-Sep-12 20:29N 51°16' E 004°15'0 0.0
2017-Sep-12 19:59N 51°16' E 004°15'0 0.0
2017-Sep-12 19:29N 51°16' E 004°15'0 0.0
2017-Sep-12 18:59N 51°16' E 004°15'0 0.0
2017-Sep-12 18:29N 51°16' E 004°15'0 0.0
2017-Sep-12 17:59N 51°16' E 004°15'0 0.0
2017-Sep-12 17:29N 51°16' E 004°15'0 0.0
2017-Sep-12 16:59N 51°16' E 004°15'0 0.0
2017-Sep-12 16:29N 51°16' E 004°15'0 0.0
2017-Sep-12 15:59N 51°16' E 004°15'0 0.0
2017-Sep-12 15:29N 51°16' E 004°15'0 0.0
2017-Sep-12 14:59N 51°16' E 004°15'0 0.0
2017-Sep-12 14:29N 51°16' E 004°15'0 0.0
2017-Sep-12 13:59N 51°16' E 004°15'0 0.0
2017-Sep-12 13:29N 51°16' E 004°15'0 0.0
2017-Sep-12 12:59N 51°16' E 004°15'0 0.0
2017-Sep-12 12:26N 51°16' E 004°15'0 0.0
2017-Sep-12 11:58N 51°16' E 004°15'0 0.0
2017-Sep-12 11:28N 51°16' E 004°15'0 0.0
2017-Sep-12 10:58N 51°16' E 004°15'0 0.0
2017-Sep-12 10:28N 51°16' E 004°15'0 0.0
2017-Sep-12 09:58N 51°16' E 004°15'0 0.0
2017-Sep-12 09:30N 51°16' E 004°15'0 0.0
2017-Sep-12 09:00N 51°16' E 004°15'0 0.0
2017-Sep-12 08:25N 51°16' E 004°15'0 0.0
2017-Sep-12 07:58N 51°16' E 004°15'0 0.0
2017-Sep-12 07:28N 51°16' E 004°15'0 0.0
2017-Sep-12 06:58N 51°16' E 004°15'0 0.0
2017-Sep-12 06:28N 51°16' E 004°15'0 0.0
2017-Sep-12 05:58N 51°16' E 004°15'0 0.0
2017-Sep-12 05:28N 51°16' E 004°15'0 0.0
2017-Sep-12 04:58N 51°16' E 004°15'0 0.0
2017-Sep-12 04:28N 51°16' E 004°15'0 0.0
2017-Sep-12 03:58N 51°16' E 004°15'0 0.0
2017-Sep-12 03:28N 51°16' E 004°15'0 0.0
2017-Sep-12 02:58N 51°16' E 004°15'0 0.0
2017-Sep-12 02:28N 51°16' E 004°15'0 0.0
2017-Sep-12 01:58N 51°16' E 004°15'0 0.0
2017-Sep-12 01:28N 51°16' E 004°15'0 0.0
2017-Sep-12 00:58N 51°16' E 004°15'0 0.0
2017-Sep-12 00:28N 51°16' E 004°15'0 0.0
2017-Sep-11 23:58N 51°16' E 004°15'0 0.0
2017-Sep-11 23:28N 51°16' E 004°15'0 0.0
2017-Sep-11 22:58N 51°16' E 004°15'0 0.0
2017-Sep-11 22:28N 51°16' E 004°15'0 0.0
2017-Sep-11 21:58N 51°16' E 004°15'0 0.0
2017-Sep-11 21:28N 51°16' E 004°15'0 0.0
2017-Sep-11 20:58N 51°16' E 004°15'0 0.0
2017-Sep-11 20:28N 51°16' E 004°15'0 0.0
2017-Sep-11 19:58N 51°16' E 004°15'0 0.0
2017-Sep-11 19:28N 51°16' E 004°15'0 0.0
2017-Sep-11 18:58N 51°16' E 004°15'0 0.0
2017-Sep-11 18:28N 51°16' E 004°15'0 0.0
2017-Sep-11 17:58N 51°16' E 004°15'0 0.0
2017-Sep-11 17:28N 51°16' E 004°15'0 0.0
2017-Sep-11 16:55N 51°16' E 004°15'0 0.0
2017-Sep-11 16:28N 51°16' E 004°15'0 0.0
2017-Sep-11 15:58N 51°16' E 004°15'0 0.0
2017-Sep-11 15:28N 51°16' E 004°15'0 0.0
2017-Sep-11 14:58N 51°16' E 004°15'0 0.0
2017-Sep-11 14:28N 51°16' E 004°15'0 0.0
2017-Sep-11 13:58N 51°16' E 004°15'0 0.0
2017-Sep-11 13:19N 51°16' E 004°15'0 0.0
2017-Sep-11 12:58N 51°16' E 004°15'0 0.0
2017-Sep-11 12:28N 51°16' E 004°15'0 0.0
2017-Sep-11 11:58N 51°16' E 004°15'0 0.0
2017-Sep-11 11:28N 51°16' E 004°15'0 0.0
2017-Sep-11 10:58N 51°16' E 004°15'0 0.0
2017-Sep-11 10:28N 51°16' E 004°15'1 2.0
2017-Sep-11 10:00N 51°17' E 004°15'0 0.0
2017-Sep-11 09:30N 51°17' E 004°15'0 0.0
2017-Sep-11 09:00N 51°17' E 004°15'1 2.9
2017-Sep-11 08:30N 51°18' E 004°16'4 7.4
2017-Sep-11 08:00N 51°21' E 004°14'4 7.7
2017-Sep-11 07:30N 51°22' E 004°08'510.3
2017-Sep-11 07:00N 51°25' E 004°01'510.2
2017-Sep-11 06:30N 51°22' E 003°55'510.7
2017-Sep-11 06:00N 51°21' E 003°47'612.2
2017-Sep-11 05:30N 51°26' E 003°41'5 9.5
2017-Sep-11 05:00N 51°25' E 003°33'714.4
2017-Sep-11 04:30N 51°24' E 003°22'815.8
2017-Sep-11 04:00N 51°24' E 003°09'815.4
2017-Sep-11 03:30N 51°23' E 002°57'815.5
2017-Sep-11 03:00N 51°22' E 002°45'5 9.7
2017-Sep-11 02:31N 51°22' E 002°37'612.4
2017-Sep-11 02:00N 51°21' E 002°27'917.6
2017-Sep-11 01:30N 51°17' E 002°15'1019.8
2017-Sep-11 01:00N 51°12' E 002°01'1020.3
2017-Sep-11 00:31N 51°06' E 001°48'1020.1
2017-Sep-11 00:00N 50°59' E 001°36'918.7
2017-Sep-10 23:30N 50°51' E 001°28'3318.0
2017-Sep-10 21:41N 50°29' E 000°50'419.4
2017-Sep-10 21:29N 50°28' E 000°44'1119.3
2017-Sep-10 20:55N 50°25' E 000°28'819.0
2017-Sep-10 20:30N 50°24' E 000°16'918.7
2017-Sep-10 20:00N 50°22' E 000°01'918.1
2017-Sep-10 19:30N 50°23' W 000°13'917.5
2017-Sep-10 19:00N 50°27' W 000°25'917.7
2017-Sep-10 18:30N 50°31' W 000°37'917.4
2017-Sep-10 18:00N 50°36' W 000°48'714.5
2017-Sep-10 17:31N 50°41' W 000°57'510.2
2017-Sep-10 17:01N 50°44' W 001°03'5 9.5
2017-Sep-10 16:30N 50°48' W 001°07'1 2.0
2017-Sep-10 16:00N 50°49' W 001°05'0 0.0
2017-Sep-10 15:30N 50°49' W 001°05'0 0.0
2017-Sep-10 15:00N 50°49' W 001°05'0 0.0
2017-Sep-10 14:00N 50°49' W 001°05'0 0.0
2017-Sep-10 13:30N 50°49' W 001°05'0 0.0
2017-Sep-10 13:00N 50°49' W 001°05'0 0.0
2017-Sep-10 12:30N 50°49' W 001°05'0 0.0
2017-Sep-10 12:00N 50°49' W 001°05'0 0.0
2017-Sep-10 11:30N 50°49' W 001°05'0 0.0
2017-Sep-10 11:00N 50°49' W 001°05'0 0.0
2017-Sep-10 10:30N 50°49' W 001°05'0 0.0
2017-Sep-10 10:00N 50°49' W 001°05'0 0.0
2017-Sep-10 09:30N 50°49' W 001°05'0 0.0
2017-Sep-10 09:00N 50°49' W 001°05'0 0.0
2017-Sep-10 08:30N 50°49' W 001°05'0 0.0
2017-Sep-10 08:00N 50°49' W 001°05'0 0.0
2017-Sep-10 07:30N 50°49' W 001°05'0 0.0
2017-Sep-10 07:00N 50°49' W 001°05'  
Track history (hours):
 
Tides and Currents Weather Stations Pressure Air Temp Water Temp Dewpoint Dewpoint Depression Visibility Wind Speed Wind Dir Waves Ship Positions

Caribbean-star

Last reported at 2017-Sep-20 06:35 UTC. Time now 2017-Sep-23 07:44 UTC.
Position N 23°56' W 016°51'.

Length 185 m; draft 8.8 m.

Type: Cargo ship. MMSI: 636013068.

Date/timePositionNaut miles runAvg speedWind from/ knotsBaromVisibWave heightAir tempDewpointWater temp
2017-Sep-20 06:35N 23°56' W 016°51'116.0
2017-Sep-20 06:30N 23°57' W 016°51'2915.9
2017-Sep-20 04:42N 24°24' W 016°40'1015.8
2017-Sep-20 04:04N 24°33' W 016°35'115.9
2017-Sep-20 04:00N 24°34' W 016°35'6415.5
2017-Sep-19 23:54N 25°33' W 016°09'10115.3
2017-Sep-19 17:17N 27°06' W 015°26'3015.2
2017-Sep-19 15:20N 27°34' W 015°14'515.4
2017-Sep-19 15:00N 27°39' W 015°12'815.4
2017-Sep-19 14:30N 27°46' W 015°09'815.7
2017-Sep-19 14:00N 27°53' W 015°06'815.6
2017-Sep-19 13:30N 28°01' W 015°03'815.6
2017-Sep-19 13:00N 28°08' W 015°00'815.8
2017-Sep-19 12:30N 28°15' W 014°57'815.5
2017-Sep-19 12:00N 28°23' W 014°54'815.8
2017-Sep-19 11:31N 28°30' W 014°52'815.9
2017-Sep-19 11:00N 28°38' W 014°50'816.0
2017-Sep-19 10:30N 28°46' W 014°48'816.0
2017-Sep-19 10:00N 28°54' W 014°46'816.0
2017-Sep-19 09:30N 29°02' W 014°44'815.9
2017-Sep-19 09:00N 29°09' W 014°42'816.1
2017-Sep-19 08:30N 29°17' W 014°39'816.2
2017-Sep-19 08:00N 29°25' W 014°37'816.1
2017-Sep-19 07:30N 29°33' W 014°35'816.0
2017-Sep-19 07:00N 29°41' W 014°34'815.8
2017-Sep-19 06:30N 29°48' W 014°31'815.9
2017-Sep-19 06:00N 29°56' W 014°29'815.9
2017-Sep-19 05:30N 30°04' W 014°27'1316.0
2017-Sep-19 04:40N 30°17' W 014°23'516.1
2017-Sep-19 04:23N 30°21' W 014°22'1115.9
2017-Sep-19 03:40N 30°32' W 014°18'615.7
2017-Sep-19 03:18N 30°38' W 014°17'615.8
2017-Sep-19 02:54N 30°44' W 014°15'615.8
2017-Sep-19 02:30N 30°50' W 014°14'1015.7
2017-Sep-19 01:52N 30°60' W 014°11'615.8
2017-Sep-19 01:28N 31°06' W 014°09'815.8
2017-Sep-19 00:57N 31°14' W 014°07'715.9
2017-Sep-19 00:30N 31°21' W 014°05'1616.2
2017-Sep-18 23:30N 31°37' W 014°01'916.3
2017-Sep-18 22:58N 31°45' W 013°58'816.0
2017-Sep-18 22:30N 31°52' W 013°56'5816.1
2017-Sep-18 18:53N 32°49' W 013°40'3115.6
2017-Sep-18 16:54N 33°19' W 013°32'4415.7
2017-Sep-18 14:07N 34°01' W 013°19'  
2017-Sep-15 19:36N 49°37' W 003°54'216.2
2017-Sep-15 19:28N 49°38' W 003°52'816.3
2017-Sep-15 19:00N 49°42' W 003°42'816.4
2017-Sep-15 18:30N 49°46' W 003°31'816.1
2017-Sep-15 18:01N 49°50' W 003°20'815.7
2017-Sep-15 17:31N 49°54' W 003°09'815.3
2017-Sep-15 17:00N 49°58' W 002°59'714.7
2017-Sep-15 16:31N 50°00' W 002°48'714.3
2017-Sep-15 16:00N 50°03' W 002°38'2513.6
2017-Sep-15 14:12N 50°10' W 002°01'313.7
2017-Sep-15 14:00N 50°10' W 001°57'713.9
2017-Sep-15 13:30N 50°12' W 001°46'714.4
2017-Sep-15 13:00N 50°14' W 001°36'715.0
2017-Sep-15 12:30N 50°16' W 001°24'4016.5
2017-Sep-15 10:06N 50°27' W 000°24'116.9
2017-Sep-15 10:01N 50°27' W 000°22'816.7
2017-Sep-15 09:31N 50°29' W 000°09'816.6
2017-Sep-15 09:00N 50°32' E 000°03'816.5
2017-Sep-15 08:31N 50°34' E 000°16'816.3
2017-Sep-15 08:01N 50°36' E 000°28'815.4
2017-Sep-15 07:31N 50°40' E 000°39'815.6
2017-Sep-15 07:01N 50°44' E 000°49'815.2
2017-Sep-15 06:31N 50°49' E 000°59'714.9
2017-Sep-15 06:01N 50°53' E 001°08'714.7
2017-Sep-15 05:30N 50°58' E 001°17'714.4
2017-Sep-15 05:00N 51°03' E 001°25'612.7
2017-Sep-15 04:30N 51°07' E 001°32'714.2
2017-Sep-15 04:00N 51°12' E 001°41'816.6
2017-Sep-15 03:30N 51°18' E 001°50'816.9
2017-Sep-15 03:01N 51°24' E 001°59'714.9
2017-Sep-15 02:30N 51°22' E 002°10'815.2
2017-Sep-15 02:00N 51°22' E 002°23'815.8
2017-Sep-15 01:30N 51°23' E 002°35'612.3
2017-Sep-15 01:00N 51°22' E 002°45'713.1
2017-Sep-15 00:31N 51°23' E 002°55'713.8
2017-Sep-15 00:01N 51°24' E 003°06'815.0
2017-Sep-14 23:30N 51°25' E 003°18'815.6
2017-Sep-14 23:01N 51°25' E 003°31'510.9
2017-Sep-14 22:30N 51°26' E 003°39'713.8
2017-Sep-14 22:00N 51°21' E 003°47'713.0
2017-Sep-14 21:30N 51°23' E 003°57'3 6.7
2017-Sep-14 21:00N 51°24' E 004°02'510.0
2017-Sep-14 20:31N 51°23' E 004°10'5 9.2
2017-Sep-14 20:01N 51°21' E 004°16'4 7.7
2017-Sep-14 19:30N 51°17' E 004°15'0 0.2
2017-Sep-14 18:59N 51°17' E 004°15'0 0.0
2017-Sep-14 18:31N 51°17' E 004°15'1 1.6
2017-Sep-14 18:00N 51°16' E 004°15'0 0.1
2017-Sep-14 17:30N 51°16' E 004°15'0 0.0
2017-Sep-14 17:00N 51°16' E 004°15'0 0.0
2017-Sep-14 16:30N 51°16' E 004°15'0 0.0
2017-Sep-14 16:00N 51°16' E 004°15'0 0.0
2017-Sep-14 15:30N 51°16' E 004°15'0 0.0
2017-Sep-14 15:00N 51°16' E 004°15'0 0.0
2017-Sep-14 14:30N 51°16' E 004°15'0 0.0
2017-Sep-14 14:00N 51°16' E 004°15'0 0.0
2017-Sep-14 13:30N 51°16' E 004°15'0 0.0
2017-Sep-14 13:00N 51°16' E 004°15'0 0.0
2017-Sep-14 12:30N 51°16' E 004°15'0 0.0
2017-Sep-14 12:00N 51°16' E 004°15'0 0.0
2017-Sep-14 11:30N 51°16' E 004°15'0 0.0
2017-Sep-14 11:00N 51°16' E 004°15'0 0.0
2017-Sep-14 10:30N 51°16' E 004°15'0 0.0
2017-Sep-14 10:00N 51°16' E 004°15'0 0.0
2017-Sep-14 09:30N 51°16' E 004°15'0 0.0
2017-Sep-14 09:00N 51°16' E 004°15'0 0.0
2017-Sep-14 08:30N 51°16' E 004°15'0 0.0
2017-Sep-14 08:00N 51°16' E 004°15'0 0.0
2017-Sep-14 07:24N 51°16' E 004°15'0 0.0
2017-Sep-14 07:00N 51°16' E 004°15'0 0.0
2017-Sep-14 06:30N 51°16' E 004°15'0 0.0
2017-Sep-14 06:00N 51°16' E 004°15'0 0.0
2017-Sep-14 05:30N 51°16' E 004°15'0 0.0
2017-Sep-14 05:00N 51°16' E 004°15'0 0.0
2017-Sep-14 04:30N 51°16' E 004°15'0 0.0
2017-Sep-14 04:00N 51°16' E 004°15'0 0.0
2017-Sep-14 03:24N 51°16' E 004°15'0 0.0
2017-Sep-14 03:00N 51°16' E 004°15'0 0.0
2017-Sep-14 02:30N 51°16' E 004°15'0 0.0
2017-Sep-14 01:54N 51°16' E 004°15'0 0.0
2017-Sep-14 01:30N 51°16' E 004°15'0 0.0
2017-Sep-14 01:00N 51°16' E 004°15'0 0.0
2017-Sep-14 00:30N 51°16' E 004°15'0 0.0
2017-Sep-14 00:00N 51°16' E 004°15'0 0.0
2017-Sep-13 23:30N 51°16' E 004°15'0 0.0
2017-Sep-13 23:00N 51°16' E 004°15'0 0.0
2017-Sep-13 22:29N 51°16' E 004°15'0 0.0
2017-Sep-13 21:59N 51°16' E 004°15'0 0.0
2017-Sep-13 21:29N 51°16' E 004°15'0 0.0
2017-Sep-13 20:59N 51°16' E 004°15'0 0.0
2017-Sep-13 20:29N 51°16' E 004°15'0 0.0
2017-Sep-13 19:59N 51°16' E 004°15'0 0.0
2017-Sep-13 19:26N 51°16' E 004°15'0 0.0
2017-Sep-13 18:53N 51°16' E 004°15'0 0.0
2017-Sep-13 18:29N 51°16' E 004°15'0 0.0
2017-Sep-13 17:59N 51°16' E 004°15'0 0.0
2017-Sep-13 17:29N 51°16' E 004°15'0 0.0
2017-Sep-13 16:59N 51°16' E 004°15'0 0.0
2017-Sep-13 16:29N 51°16' E 004°15'0 0.0
2017-Sep-13 15:59N 51°16' E 004°15'0 0.0
2017-Sep-13 15:29N 51°16' E 004°15'0 0.0
2017-Sep-13 14:59N 51°16' E 004°15'0 0.0
2017-Sep-13 14:29N 51°16' E 004°15'0 0.0
2017-Sep-13 13:59N 51°16' E 004°15'0 0.0
2017-Sep-13 13:26N 51°16' E 004°15'0 0.0
2017-Sep-13 12:59N 51°16' E 004°15'0 0.0
2017-Sep-13 12:29N 51°16' E 004°15'0 0.0
2017-Sep-13 11:59N 51°16' E 004°15'0 0.0
2017-Sep-13 11:26N 51°16' E 004°15'0 0.0
2017-Sep-13 10:59N 51°16' E 004°15'0 0.0
2017-Sep-13 10:26N 51°16' E 004°15'0 0.0
2017-Sep-13 09:59N 51°16' E 004°15'0 0.0
2017-Sep-13 09:26N 51°16' E 004°15'0 0.0
2017-Sep-13 08:56N 51°16' E 004°15'0 0.0
2017-Sep-13 08:26N 51°16' E 004°15'0 0.0
2017-Sep-13 07:56N 51°16' E 004°15'0 0.0
2017-Sep-13 07:29N 51°16' E 004°15'0 0.0
2017-Sep-13 06:59N 51°16' E 004°15'0 0.0
2017-Sep-13 06:29N 51°16' E 004°15'0 0.0
2017-Sep-13 05:59N 51°16' E 004°15'0 0.0
2017-Sep-13 05:29N 51°16' E 004°15'0 0.0
2017-Sep-13 04:59N 51°16' E 004°15'0 0.0
2017-Sep-13 04:29N 51°16' E 004°15'0 0.0
2017-Sep-13 03:59N 51°16' E 004°15'0 0.0
2017-Sep-13 03:29N 51°16' E 004°15'0 0.0
2017-Sep-13 02:59N 51°16' E 004°15'0 0.0
2017-Sep-13 02:29N 51°16' E 004°15'0 0.0
2017-Sep-13 01:59N 51°16' E 004°15'0 0.0
2017-Sep-13 01:29N 51°16' E 004°15'0 0.0
2017-Sep-13 00:59N 51°16' E 004°15'0 0.0
2017-Sep-13 00:29N 51°16' E 004°15'0 0.0
2017-Sep-12 23:59N 51°16' E 004°15'0 0.0
2017-Sep-12 23:29N 51°16' E 004°15'0 0.0
2017-Sep-12 22:59N 51°16' E 004°15'0 0.0
2017-Sep-12 22:29N 51°16' E 004°15'0 0.0
2017-Sep-12 21:59N 51°16' E 004°15'0 0.0
2017-Sep-12 21:29N 51°16' E 004°15'0 0.0
2017-Sep-12 20:59N 51°16' E 004°15'0 0.0
2017-Sep-12 20:29N 51°16' E 004°15'0 0.0
2017-Sep-12 19:59N 51°16' E 004°15'0 0.0
2017-Sep-12 19:29N 51°16' E 004°15'0 0.0
2017-Sep-12 18:59N 51°16' E 004°15'0 0.0
2017-Sep-12 18:29N 51°16' E 004°15'0 0.0
2017-Sep-12 17:59N 51°16' E 004°15'0 0.0
2017-Sep-12 17:29N 51°16' E 004°15'0 0.0
2017-Sep-12 16:59N 51°16' E 004°15'0 0.0
2017-Sep-12 16:29N 51°16' E 004°15'0 0.0
2017-Sep-12 15:59N 51°16' E 004°15'0 0.0
2017-Sep-12 15:29N 51°16' E 004°15'0 0.0
2017-Sep-12 14:59N 51°16' E 004°15'0 0.0
2017-Sep-12 14:29N 51°16' E 004°15'0 0.0
2017-Sep-12 13:59N 51°16' E 004°15'0 0.0
2017-Sep-12 13:29N 51°16' E 004°15'0 0.0
2017-Sep-12 12:59N 51°16' E 004°15'0 0.0
2017-Sep-12 12:26N 51°16' E 004°15'0 0.0
2017-Sep-12 11:58N 51°16' E 004°15'0 0.0
2017-Sep-12 11:28N 51°16' E 004°15'0 0.0
2017-Sep-12 10:58N 51°16' E 004°15'0 0.0
2017-Sep-12 10:28N 51°16' E 004°15'0 0.0
2017-Sep-12 09:58N 51°16' E 004°15'0 0.0
2017-Sep-12 09:30N 51°16' E 004°15'0 0.0
2017-Sep-12 09:00N 51°16' E 004°15'0 0.0
2017-Sep-12 08:25N 51°16' E 004°15'0 0.0
2017-Sep-12 07:58N 51°16' E 004°15'0 0.0
2017-Sep-12 07:28N 51°16' E 004°15'0 0.0
2017-Sep-12 06:58N 51°16' E 004°15'0 0.0
2017-Sep-12 06:28N 51°16' E 004°15'0 0.0
2017-Sep-12 05:58N 51°16' E 004°15'0 0.0
2017-Sep-12 05:28N 51°16' E 004°15'0 0.0
2017-Sep-12 04:58N 51°16' E 004°15'0 0.0
2017-Sep-12 04:28N 51°16' E 004°15'0 0.0
2017-Sep-12 03:58N 51°16' E 004°15'0 0.0
2017-Sep-12 03:28N 51°16' E 004°15'0 0.0
2017-Sep-12 02:58N 51°16' E 004°15'0 0.0
2017-Sep-12 02:28N 51°16' E 004°15'0 0.0
2017-Sep-12 01:58N 51°16' E 004°15'0 0.0
2017-Sep-12 01:28N 51°16' E 004°15'0 0.0
2017-Sep-12 00:58N 51°16' E 004°15'0 0.0
2017-Sep-12 00:28N 51°16' E 004°15'0 0.0
2017-Sep-11 23:58N 51°16' E 004°15'0 0.0
2017-Sep-11 23:28N 51°16' E 004°15'0 0.0
2017-Sep-11 22:58N 51°16' E 004°15'0 0.0
2017-Sep-11 22:28N 51°16' E 004°15'0 0.0
2017-Sep-11 21:58N 51°16' E 004°15'0 0.0
2017-Sep-11 21:28N 51°16' E 004°15'0 0.0
2017-Sep-11 20:58N 51°16' E 004°15'0 0.0
2017-Sep-11 20:28N 51°16' E 004°15'0 0.0
2017-Sep-11 19:58N 51°16' E 004°15'0 0.0
2017-Sep-11 19:28N 51°16' E 004°15'0 0.0
2017-Sep-11 18:58N 51°16' E 004°15'0 0.0
2017-Sep-11 18:28N 51°16' E 004°15'0 0.0
2017-Sep-11 17:58N 51°16' E 004°15'0 0.0
2017-Sep-11 17:28N 51°16' E 004°15'0 0.0
2017-Sep-11 16:55N 51°16' E 004°15'0 0.0
2017-Sep-11 16:28N 51°16' E 004°15'0 0.0
2017-Sep-11 15:58N 51°16' E 004°15'0 0.0
2017-Sep-11 15:28N 51°16' E 004°15'0 0.0
2017-Sep-11 14:58N 51°16' E 004°15'0 0.0
2017-Sep-11 14:28N 51°16' E 004°15'0 0.0
2017-Sep-11 13:58N 51°16' E 004°15'0 0.0
2017-Sep-11 13:19N 51°16' E 004°15'0 0.0
2017-Sep-11 12:58N 51°16' E 004°15'0 0.0
2017-Sep-11 12:28N 51°16' E 004°15'0 0.0
2017-Sep-11 11:58N 51°16' E 004°15'0 0.0
2017-Sep-11 11:28N 51°16' E 004°15'0 0.0
2017-Sep-11 10:58N 51°16' E 004°15'0 0.0
2017-Sep-11 10:28N 51°16' E 004°15'1 2.0
2017-Sep-11 10:00N 51°17' E 004°15'0 0.0
2017-Sep-11 09:30N 51°17' E 004°15'0 0.0
2017-Sep-11 09:00N 51°17' E 004°15'1 2.9
2017-Sep-11 08:30N 51°18' E 004°16'4 7.4
2017-Sep-11 08:00N 51°21' E 004°14'4 7.7
2017-Sep-11 07:30N 51°22' E 004°08'510.3
2017-Sep-11 07:00N 51°25' E 004°01'510.2
2017-Sep-11 06:30N 51°22' E 003°55'510.7
2017-Sep-11 06:00N 51°21' E 003°47'612.2
2017-Sep-11 05:30N 51°26' E 003°41'5 9.5
2017-Sep-11 05:00N 51°25' E 003°33'714.4
2017-Sep-11 04:30N 51°24' E 003°22'815.8
2017-Sep-11 04:00N 51°24' E 003°09'815.4
2017-Sep-11 03:30N 51°23' E 002°57'815.5
2017-Sep-11 03:00N 51°22' E 002°45'5 9.7
2017-Sep-11 02:31N 51°22' E 002°37'612.4
2017-Sep-11 02:00N 51°21' E 002°27'917.6
2017-Sep-11 01:30N 51°17' E 002°15'1019.8
2017-Sep-11 01:00N 51°12' E 002°01'1020.3
2017-Sep-11 00:31N 51°06' E 001°48'1020.1
2017-Sep-11 00:00N 50°59' E 001°36'918.7
2017-Sep-10 23:30N 50°51' E 001°28'3318.0
2017-Sep-10 21:41N 50°29' E 000°50'419.4
2017-Sep-10 21:29N 50°28' E 000°44'1119.3
2017-Sep-10 20:55N 50°25' E 000°28'819.0
2017-Sep-10 20:30N 50°24' E 000°16'918.7
2017-Sep-10 20:00N 50°22' E 000°01'918.1
2017-Sep-10 19:30N 50°23' W 000°13'917.5
2017-Sep-10 19:00N 50°27' W 000°25'917.7
2017-Sep-10 18:30N 50°31' W 000°37'917.4
2017-Sep-10 18:00N 50°36' W 000°48'714.5
2017-Sep-10 17:31N 50°41' W 000°57'510.2
2017-Sep-10 17:01N 50°44' W 001°03'5 9.5
2017-Sep-10 16:30N 50°48' W 001°07'1 2.0
2017-Sep-10 16:00N 50°49' W 001°05'0 0.0
2017-Sep-10 15:30N 50°49' W 001°05'0 0.0
2017-Sep-10 15:00N 50°49' W 001°05'0 0.0
2017-Sep-10 14:00N 50°49' W 001°05'0 0.0
2017-Sep-10 13:30N 50°49' W 001°05'0 0.0
2017-Sep-10 13:00N 50°49' W 001°05'0 0.0
2017-Sep-10 12:30N 50°49' W 001°05'0 0.0
2017-Sep-10 12:00N 50°49' W 001°05'0 0.0
2017-Sep-10 11:30N 50°49' W 001°05'0 0.0
2017-Sep-10 11:00N 50°49' W 001°05'0 0.0
2017-Sep-10 10:30N 50°49' W 001°05'0 0.0
2017-Sep-10 10:00N 50°49' W 001°05'0 0.0
2017-Sep-10 09:30N 50°49' W 001°05'0 0.0
2017-Sep-10 09:00N 50°49' W 001°05'0 0.0
2017-Sep-10 08:30N 50°49' W 001°05'0 0.0
2017-Sep-10 08:00N 50°49' W 001°05'0 0.0
2017-Sep-10 07:30N 50°49' W 001°05'0 0.0
2017-Sep-10 07:00N 50°49' W 001°05'  

Dump ship's entire track history